createdAt,value
2022-09-23T00:00:17.456Z,100674.30
2022-09-23T00:05:40.124Z,100677.50
2022-09-23T00:10:42.822Z,100673.77
2022-09-23T00:15:46.956Z,100670.52
2022-09-23T00:20:49.758Z,100667.45
2022-09-23T00:25:56.247Z,100667.44
2022-09-23T00:31:03.339Z,100662.18
2022-09-23T00:36:07.583Z,100665.36
2022-09-23T00:41:10.491Z,100662.23
2022-09-23T00:46:27.097Z,100658.77
2022-09-23T00:51:33.095Z,100657.23
2022-09-23T00:56:37.223Z,100661.27
2022-09-23T01:01:40.213Z,100665.54
2022-09-23T01:07:10.989Z,100662.39
2022-09-23T01:12:17.681Z,100660.96
2022-09-23T01:17:23.453Z,100656.64
2022-09-23T01:22:35.674Z,100651.73
2022-09-23T01:27:50.356Z,100647.06
2022-09-23T01:32:53.058Z,100647.73
2022-09-23T01:38:01.593Z,100646.01
2022-09-23T01:43:04.290Z,100643.84
2022-09-23T01:48:13.947Z,100647.67
2022-09-23T01:53:55.462Z,100645.83
2022-09-23T01:58:58.676Z,100643.23
2022-09-23T02:04:04.519Z,100642.97
2022-09-23T02:09:18.819Z,100646.91
2022-09-23T02:14:24.898Z,100645.60
2022-09-23T02:19:46.829Z,100645.73
2022-09-23T02:24:49.753Z,100641.55
2022-09-23T02:29:55.527Z,100643.39
2022-09-23T02:35:07.543Z,100639.48
2022-09-23T02:40:10.487Z,100634.12
2022-09-23T02:45:13.656Z,100633.63
2022-09-23T02:50:18.302Z,100637.59
2022-09-23T02:55:23.665Z,100633.56
2022-09-23T03:00:29.687Z,100628.30
2022-09-23T03:05:36.950Z,100624.79
2022-09-23T03:10:48.657Z,100623.14
2022-09-23T03:16:00.702Z,100625.23
2022-09-23T03:21:15.151Z,100621.96
2022-09-23T03:26:21.137Z,100617.40
2022-09-23T03:31:24.072Z,100617.00
2022-09-23T03:36:53.565Z,100618.09
2022-09-23T03:41:59.331Z,100617.50
2022-09-23T03:47:02.545Z,100617.31
2022-09-23T03:52:06.062Z,100619.80
2022-09-23T03:57:10.299Z,100620.81
2022-09-23T04:02:13.057Z,100619.51
2022-09-23T04:07:16.822Z,100608.28
2022-09-23T04:12:19.731Z,100607.06
2022-09-23T04:17:22.529Z,100605.48
2022-09-23T04:22:25.333Z,100606.93
2022-09-23T04:27:28.030Z,100605.20
2022-09-23T04:32:32.064Z,100604.46
2022-09-23T04:37:34.765Z,100604.27
2022-09-23T04:42:37.767Z,100603.77
2022-09-23T04:47:40.875Z,100596.02
2022-09-23T04:52:43.575Z,100593.33
2022-09-23T04:57:46.376Z,100595.73
2022-09-23T05:02:49.997Z,100594.42
2022-09-23T05:07:55.177Z,100593.23
2022-09-23T05:12:58.557Z,100593.98
2022-09-23T05:18:02.704Z,100591.73
2022-09-23T05:23:05.504Z,100592.61
2022-09-23T05:28:08.512Z,100594.13
2022-09-23T05:33:11.621Z,100589.60
2022-09-23T05:38:16.881Z,100594.98
2022-09-23T05:43:19.579Z,100605.84
2022-09-23T05:48:22.281Z,100609.71
2022-09-23T05:53:25.388Z,100608.89
2022-09-23T05:58:28.496Z,100609.98
2022-09-23T06:03:31.298Z,100613.33
2022-09-23T06:08:35.057Z,100613.79
2022-09-23T06:13:39.055Z,100615.77
2022-09-23T06:18:43.102Z,100611.86
2022-09-23T06:23:46.419Z,100607.43
2022-09-23T06:28:50.125Z,100609.91
2022-09-23T06:34:04.337Z,100615.73
2022-09-23T06:39:15.897Z,100618.95
2022-09-23T06:44:18.698Z,100622.86
2022-09-23T06:49:21.910Z,100624.67
2022-09-23T06:54:24.711Z,100614.98
2022-09-23T06:59:27.412Z,100616.75
2022-09-23T07:04:30.112Z,100619.81
2022-09-23T07:09:32.916Z,100616.46
2022-09-23T07:14:35.817Z,100620.80
2022-09-23T07:19:39.146Z,100621.61
2022-09-23T07:24:41.934Z,100623.06
2022-09-23T07:29:48.735Z,100622.66
2022-09-23T07:34:51.840Z,100620.57
2022-09-23T07:39:56.276Z,100615.55
2022-09-23T07:44:58.978Z,100617.20
2022-09-23T07:50:02.249Z,100617.88
2022-09-23T07:55:05.912Z,100614.98
2022-09-23T08:00:09.431Z,100606.48
2022-09-23T08:05:12.235Z,100600.80
2022-09-23T08:10:21.181Z,100602.39
2022-09-23T08:15:23.881Z,100605.84
2022-09-23T08:20:47.379Z,100598.94
2022-09-23T08:25:59.550Z,100598.45
2022-09-23T08:31:03.055Z,100595.45
2022-09-23T08:36:06.321Z,100595.02
2022-09-23T08:41:15.058Z,100598.35
2022-09-23T08:46:27.549Z,100599.18
2022-09-23T08:51:41.246Z,100587.23
2022-09-23T08:56:48.861Z,100589.36
2022-09-23T09:02:05.810Z,100588.64
2022-09-23T09:07:35.237Z,100588.13
2022-09-23T09:12:38.331Z,100583.83
2022-09-23T09:17:59.570Z,100586.44
2022-09-23T09:23:10.157Z,100579.62
2022-09-23T09:28:19.298Z,100570.20
2022-09-23T09:33:27.789Z,100552.23
2022-09-23T09:38:32.377Z,100548.82
2022-09-23T09:43:35.485Z,100551.68
2022-09-23T09:48:39.313Z,100557.54
2022-09-23T09:53:42.082Z,100558.15
2022-09-23T09:58:47.837Z,100564.23
2022-09-23T10:03:55.613Z,100565.30
2022-09-23T10:09:08.798Z,100561.33
2022-09-23T10:14:13.436Z,100563.20
2022-09-23T10:19:21.865Z,100554.21
2022-09-23T10:24:27.330Z,100545.55
2022-09-23T10:29:37.508Z,100538.84
2022-09-23T10:34:43.384Z,100530.50
2022-09-23T10:40:04.801Z,100527.02
2022-09-23T10:45:39.740Z,100522.82
2022-09-23T10:50:49.552Z,100510.39
2022-09-23T10:55:59.934Z,100508.69
2022-09-23T11:01:13.624Z,100512.08
2022-09-23T11:06:16.979Z,100504.09
2022-09-23T11:11:19.614Z,100502.90
2022-09-23T11:16:39.239Z,100505.20
2022-09-23T11:21:45.088Z,100503.86
2022-09-23T11:26:54.441Z,100500.36
2022-09-23T11:32:20.180Z,100494.98
2022-09-23T11:37:26.552Z,100489.33
2022-09-23T11:42:32.442Z,100484.84
2022-09-23T11:47:43.747Z,100482.38
2022-09-23T11:52:51.989Z,100485.43
2022-09-23T11:57:57.647Z,100487.50
2022-09-23T12:03:32.890Z,100490.15
2022-09-23T12:08:41.458Z,100486.35
2022-09-23T12:14:03.320Z,100485.26
2022-09-23T12:19:24.632Z,100480.77
2022-09-23T12:24:39.315Z,100477.59
2022-09-23T12:29:42.525Z,100469.69
2022-09-23T12:34:50.139Z,100466.89
2022-09-23T12:39:53.557Z,100461.48
2022-09-23T12:45:16.225Z,100464.80
2022-09-23T12:50:37.461Z,100463.98
2022-09-23T12:55:40.162Z,100458.17
2022-09-23T13:01:02.919Z,100454.65
2022-09-23T13:06:25.804Z,100456.56
2022-09-23T13:11:32.807Z,100450.52
2022-09-23T13:16:43.884Z,100449.75
2022-09-23T13:21:46.865Z,100447.77
2022-09-23T13:26:54.318Z,100441.08
2022-09-23T13:32:00.246Z,100434.14
2022-09-23T13:37:22.242Z,100433.42
2022-09-23T13:42:30.253Z,100427.80
2022-09-23T13:47:35.261Z,100425.64
2022-09-23T13:52:38.027Z,100420.71
2022-09-23T13:57:40.831Z,100412.52
2022-09-23T14:02:44.487Z,100413.48
2022-09-23T14:07:47.969Z,100410.42
2022-09-23T14:12:52.103Z,100404.58
2022-09-23T14:17:59.102Z,100393.74
2022-09-23T14:23:10.961Z,100389.98
2022-09-23T14:28:17.611Z,100379.92
2022-09-23T14:33:26.869Z,100370.55
2022-09-23T14:38:49.432Z,100371.33
2022-09-23T14:43:58.590Z,100367.77
2022-09-23T14:49:15.516Z,100363.66
2022-09-23T14:54:26.411Z,100363.79
2022-09-23T14:59:33.400Z,100357.68
2022-09-23T15:04:36.112Z,100362.82
2022-09-23T15:09:40.653Z,100360.89
2022-09-23T15:14:46.677Z,100358.13
2022-09-23T15:19:56.831Z,100356.85
2022-09-23T15:25:32.178Z,100350.96
2022-09-23T15:30:36.020Z,100344.39
2022-09-23T15:35:46.686Z,100343.94
2022-09-23T15:40:49.502Z,100344.71
2022-09-23T15:45:57.229Z,100339.89
2022-09-23T15:51:03.596Z,100338.92
2022-09-23T15:56:06.597Z,100335.44
2022-09-23T16:01:16.941Z,100332.27
2022-09-23T16:06:20.496Z,100332.38
2022-09-23T16:11:25.039Z,100332.14
2022-09-23T16:16:28.323Z,100330.13
2022-09-23T16:21:31.259Z,100330.98
2022-09-23T16:26:35.394Z,100327.27
2022-09-23T16:31:38.796Z,100326.93
2022-09-23T16:36:43.664Z,100329.77
2022-09-23T16:41:46.765Z,100332.98
2022-09-23T16:46:49.467Z,100334.66
2022-09-23T16:51:52.578Z,100335.14
2022-09-23T16:56:55.377Z,100332.59
2022-09-23T17:02:16.987Z,100327.05
2022-09-23T17:07:20.131Z,100324.23
2022-09-23T17:12:27.030Z,100322.62
2022-09-23T17:17:29.730Z,100317.33
2022-09-23T17:22:33.762Z,100313.11
2022-09-23T17:27:37.993Z,100309.30
2022-09-23T17:32:41.296Z,100311.02
2022-09-23T17:37:44.007Z,100313.08
2022-09-23T17:42:46.710Z,100313.19
2022-09-23T17:47:55.142Z,100311.73
2022-09-23T17:53:00.604Z,100315.30
2022-09-23T17:58:03.305Z,100313.87
2022-09-23T18:03:06.003Z,100315.42
2022-09-23T18:08:08.704Z,100315.19
2022-09-23T18:13:11.403Z,100316.89
2022-09-23T18:18:14.101Z,100315.77
2022-09-23T18:23:16.803Z,100315.36
2022-09-23T18:28:19.489Z,100317.44
2022-09-23T18:33:22.922Z,100315.48
2022-09-23T18:38:25.616Z,100317.13
2022-09-23T18:43:41.425Z,100314.30
2022-09-23T18:49:04.910Z,100316.79
2022-09-23T18:54:08.407Z,100319.05
2022-09-23T18:59:12.868Z,100314.80
2022-09-23T19:04:17.309Z,100316.86
2022-09-23T19:09:20.520Z,100315.38
2022-09-23T19:14:23.834Z,100312.67
2022-09-23T19:19:26.741Z,100314.59
2022-09-23T19:24:29.442Z,100316.41
2022-09-23T19:29:32.239Z,100318.10
2022-09-23T19:34:36.990Z,100320.85
2022-09-23T19:39:41.121Z,100324.06
2022-09-23T19:44:43.819Z,100329.74
2022-09-23T19:49:46.928Z,100329.09
2022-09-23T19:54:50.253Z,100325.27
2022-09-23T19:59:53.043Z,100326.09
2022-09-23T20:04:55.730Z,100319.20
2022-09-23T20:09:58.802Z,100316.95
2022-09-23T20:15:01.552Z,100308.65
2022-09-23T20:20:04.868Z,100298.56
2022-09-23T20:25:13.299Z,100291.52
2022-09-23T20:30:16.589Z,100293.13
2022-09-23T20:35:19.310Z,100290.87
2022-09-23T20:40:23.224Z,100291.33
2022-09-23T20:45:25.943Z,100292.33
2022-09-23T20:50:29.355Z,100291.73
2022-09-23T20:55:32.157Z,100297.09
2022-09-23T21:00:34.980Z,100297.34
2022-09-23T21:05:37.774Z,100293.20
2022-09-23T21:10:42.508Z,100295.41
2022-09-23T21:15:45.252Z,100294.09
2022-09-23T21:20:55.284Z,100298.29
2022-09-23T21:26:02.076Z,100300.34
2022-09-23T21:31:12.185Z,100294.92
2022-09-23T21:36:15.258Z,100294.08
2022-09-23T21:41:18.366Z,100290.33
2022-09-23T21:46:21.647Z,100289.73
2022-09-23T21:51:25.558Z,100292.67
2022-09-23T21:56:30.297Z,100289.97
2022-09-23T22:01:35.291Z,100290.90
2022-09-23T22:06:38.546Z,100291.24
2022-09-23T22:12:20.642Z,100289.43
2022-09-23T22:17:23.963Z,100294.69
2022-09-23T22:22:26.862Z,100295.54
2022-09-23T22:27:29.968Z,100292.61
2022-09-23T22:32:41.853Z,100294.07
2022-09-23T22:37:45.503Z,100293.79
2022-09-23T22:42:49.024Z,100292.99
2022-09-23T22:47:53.345Z,100290.09
2022-09-23T22:52:57.588Z,100288.68
2022-09-23T22:58:15.254Z,100285.70
2022-09-23T23:03:27.231Z,100279.01
2022-09-23T23:08:30.679Z,100275.87
2022-09-23T23:13:33.583Z,100274.57
2022-09-23T23:18:40.281Z,100274.28
2022-09-23T23:23:44.517Z,100271.44
2022-09-23T23:28:47.724Z,100269.45
2022-09-23T23:33:50.526Z,100266.75
2022-09-23T23:38:53.430Z,100265.38
2022-09-23T23:43:58.439Z,100260.33
2022-09-23T23:49:01.286Z,100263.14
2022-09-23T23:54:04.743Z,100261.89
2022-09-23T23:59:07.407Z,100261.24
